createdAt,value
2022-11-03T00:00:15.944Z,4.46
2022-11-03T00:01:05.934Z,4.46
2022-11-03T00:01:56.161Z,4.44
2022-11-03T00:02:46.021Z,4.44
2022-11-03T00:03:35.903Z,4.39
2022-11-03T00:04:25.902Z,4.35
2022-11-03T00:05:15.895Z,4.35
2022-11-03T00:06:05.901Z,4.34
2022-11-03T00:06:55.880Z,4.36
2022-11-03T00:07:45.853Z,4.34
2022-11-03T00:08:37.754Z,4.29
2022-11-03T00:09:25.843Z,4.25
2022-11-03T00:10:15.824Z,4.21
2022-11-03T00:11:05.849Z,4.17
2022-11-03T00:11:55.807Z,4.13
2022-11-03T00:12:45.807Z,4.11
2022-11-03T00:13:35.813Z,4.13
2022-11-03T00:14:25.820Z,4.14
2022-11-03T00:15:15.780Z,4.16
2022-11-03T00:16:05.803Z,4.17
2022-11-03T00:16:55.758Z,4.18
2022-11-03T00:17:45.760Z,4.18
2022-11-03T00:18:35.732Z,4.20
2022-11-03T00:19:25.724Z,4.21
2022-11-03T00:20:15.750Z,4.21
2022-11-03T00:21:05.740Z,4.25
2022-11-03T00:21:55.702Z,4.26
2022-11-03T00:22:45.699Z,4.28
2022-11-03T00:23:35.682Z,4.28
2022-11-03T00:24:25.671Z,4.28
2022-11-03T00:25:15.651Z,4.29
2022-11-03T00:26:05.888Z,4.32
2022-11-03T00:26:55.646Z,4.34
2022-11-03T00:27:45.641Z,4.34
2022-11-03T00:28:35.639Z,4.36
2022-11-03T00:29:25.694Z,4.35
2022-11-03T00:30:15.610Z,4.35
2022-11-03T00:31:05.614Z,4.35
2022-11-03T00:31:55.601Z,4.35
2022-11-03T00:32:45.603Z,4.35
2022-11-03T00:33:35.568Z,4.34
2022-11-03T00:34:25.558Z,4.34
2022-11-03T00:35:15.552Z,4.34
2022-11-03T00:36:05.542Z,4.32
2022-11-03T00:36:55.544Z,4.32
2022-11-03T00:37:45.556Z,4.29
2022-11-03T00:38:35.530Z,4.29
2022-11-03T00:39:25.499Z,4.26
2022-11-03T00:40:15.531Z,4.25
2022-11-03T00:41:05.499Z,4.24
2022-11-03T00:41:55.474Z,4.21
2022-11-03T00:42:45.473Z,4.18
2022-11-03T00:43:35.487Z,4.14
2022-11-03T00:44:25.440Z,4.11
2022-11-03T00:45:15.500Z,4.07
2022-11-03T00:46:05.449Z,4.02
2022-11-03T00:46:55.436Z,4.00
2022-11-03T00:47:45.450Z,3.98
2022-11-03T00:48:35.419Z,3.98
2022-11-03T00:49:25.683Z,3.98
2022-11-03T00:50:15.392Z,3.98
2022-11-03T00:51:05.389Z,3.96
2022-11-03T00:51:55.380Z,3.98
2022-11-03T00:52:45.356Z,3.99
2022-11-03T00:53:35.367Z,3.99
2022-11-03T00:54:25.347Z,4.00
2022-11-03T00:55:15.369Z,4.02
2022-11-03T00:56:05.328Z,4.00
2022-11-03T00:56:55.326Z,4.02
2022-11-03T00:57:45.309Z,4.04
2022-11-03T00:58:35.297Z,4.06
2022-11-03T00:59:25.283Z,4.06
2022-11-03T01:00:15.291Z,4.06
2022-11-03T01:01:07.517Z,4.06
2022-11-03T01:01:55.395Z,4.06
2022-11-03T01:02:45.266Z,4.07
2022-11-03T01:03:35.246Z,4.07
2022-11-03T01:04:25.245Z,4.08
2022-11-03T01:05:15.217Z,4.08
2022-11-03T01:06:05.214Z,4.10
2022-11-03T01:06:55.218Z,4.11
2022-11-03T01:07:45.219Z,4.10
2022-11-03T01:08:35.203Z,4.07
2022-11-03T01:09:25.168Z,4.07
2022-11-03T01:10:15.385Z,4.08
2022-11-03T01:11:05.144Z,4.10
2022-11-03T01:11:55.137Z,4.08
2022-11-03T01:12:45.135Z,4.07
2022-11-03T01:13:35.136Z,4.07
2022-11-03T01:14:25.107Z,4.04
2022-11-03T01:15:15.112Z,4.02
2022-11-03T01:16:05.295Z,3.99
2022-11-03T01:16:55.094Z,3.98
2022-11-03T01:17:45.083Z,3.95
2022-11-03T01:18:35.077Z,3.95
2022-11-03T01:19:25.090Z,3.90
2022-11-03T01:20:15.067Z,3.89
2022-11-03T01:21:05.042Z,3.88
2022-11-03T01:21:55.061Z,3.89
2022-11-03T01:22:45.044Z,3.92
2022-11-03T01:23:35.028Z,3.92
2022-11-03T01:24:25.009Z,3.95
2022-11-03T01:25:14.985Z,3.93
2022-11-03T01:26:04.972Z,3.93
2022-11-03T01:26:54.991Z,3.93
2022-11-03T01:27:45.205Z,3.92
2022-11-03T01:28:34.954Z,3.93
2022-11-03T01:29:24.947Z,3.93
2022-11-03T01:30:14.942Z,3.92
2022-11-03T01:31:04.921Z,3.93
2022-11-03T01:31:54.935Z,3.92
2022-11-03T01:32:44.923Z,3.93
2022-11-03T01:33:35.131Z,3.92
2022-11-03T01:34:24.897Z,3.90
2022-11-03T01:35:14.890Z,3.89
2022-11-03T01:36:04.883Z,3.86
2022-11-03T01:36:54.874Z,3.84
2022-11-03T01:37:44.869Z,3.86
2022-11-03T01:38:34.848Z,3.86
2022-11-03T01:39:24.888Z,3.86
2022-11-03T01:40:14.847Z,3.82
2022-11-03T01:41:04.830Z,3.82
2022-11-03T01:41:54.811Z,3.81
2022-11-03T01:42:44.789Z,3.81
2022-11-03T01:43:34.790Z,3.80
2022-11-03T01:44:24.790Z,3.80
2022-11-03T01:45:14.828Z,3.78
2022-11-03T01:46:04.780Z,3.77
2022-11-03T01:46:54.749Z,3.78
2022-11-03T01:47:44.842Z,3.75
2022-11-03T01:48:34.739Z,3.77
2022-11-03T01:49:24.735Z,3.75
2022-11-03T01:50:14.721Z,3.74
2022-11-03T01:51:04.719Z,3.74
2022-11-03T01:51:54.708Z,3.72
2022-11-03T01:52:44.684Z,3.74
2022-11-03T01:53:34.675Z,3.74
2022-11-03T01:54:24.678Z,3.74
2022-11-03T01:55:14.667Z,3.72
2022-11-03T01:56:04.688Z,3.70
2022-11-03T01:56:54.649Z,3.67
2022-11-03T01:57:44.623Z,3.64
2022-11-03T01:58:34.675Z,3.62
2022-11-03T01:59:24.627Z,3.59
2022-11-03T02:00:14.601Z,3.57
2022-11-03T02:01:04.633Z,3.53
2022-11-03T02:01:54.685Z,3.53
2022-11-03T02:02:44.566Z,3.53
2022-11-03T02:03:34.558Z,3.52
2022-11-03T02:04:24.552Z,3.49
2022-11-03T02:05:14.556Z,3.46
2022-11-03T02:06:04.534Z,3.50
2022-11-03T02:06:54.569Z,3.53
2022-11-03T02:07:44.754Z,3.53
2022-11-03T02:08:34.515Z,3.56
2022-11-03T02:09:24.514Z,3.59
2022-11-03T02:10:14.504Z,3.60
2022-11-03T02:11:04.495Z,3.62
2022-11-03T02:11:54.494Z,3.62
2022-11-03T02:12:44.483Z,3.60
2022-11-03T02:13:34.503Z,3.60
2022-11-03T02:14:24.443Z,3.59
2022-11-03T02:15:14.455Z,3.57
2022-11-03T02:16:04.440Z,3.54
2022-11-03T02:16:54.427Z,3.53
2022-11-03T02:17:44.430Z,3.50
2022-11-03T02:18:34.420Z,3.50
2022-11-03T02:19:24.433Z,3.53
2022-11-03T02:20:14.400Z,3.52
2022-11-03T02:21:04.377Z,3.50
2022-11-03T02:21:54.383Z,3.49
2022-11-03T02:22:44.358Z,3.49
2022-11-03T02:23:34.341Z,3.52
2022-11-03T02:24:24.332Z,3.52
2022-11-03T02:25:14.341Z,3.53
2022-11-03T02:26:04.319Z,3.50
2022-11-03T02:26:54.326Z,3.52
2022-11-03T02:27:44.313Z,3.53
2022-11-03T02:28:34.300Z,3.52
2022-11-03T02:29:24.276Z,3.52
2022-11-03T02:30:14.289Z,3.49
2022-11-03T02:31:04.281Z,3.49
2022-11-03T02:31:54.267Z,3.49
2022-11-03T02:32:44.248Z,3.49
2022-11-03T02:33:34.234Z,3.46
2022-11-03T02:34:24.239Z,3.49
2022-11-03T02:35:14.226Z,3.49
2022-11-03T02:36:04.211Z,3.46
2022-11-03T02:36:54.243Z,3.44
2022-11-03T02:37:44.210Z,3.39
2022-11-03T02:38:34.185Z,3.35
2022-11-03T02:39:24.207Z,3.35
2022-11-03T02:40:14.170Z,3.35
2022-11-03T02:41:04.151Z,3.37
2022-11-03T02:41:54.142Z,3.39
2022-11-03T02:42:44.205Z,3.44
2022-11-03T02:43:34.139Z,3.45
2022-11-03T02:44:24.105Z,3.46
2022-11-03T02:45:17.304Z,3.49
2022-11-03T02:46:04.105Z,3.50
2022-11-03T02:46:54.085Z,3.52
2022-11-03T02:47:44.108Z,3.49
2022-11-03T02:48:34.094Z,3.50
2022-11-03T02:49:24.058Z,3.50
2022-11-03T02:50:14.060Z,3.50
2022-11-03T02:51:04.061Z,3.49
2022-11-03T02:51:54.050Z,3.49
2022-11-03T02:52:44.025Z,3.50
2022-11-03T02:53:34.029Z,3.45
2022-11-03T02:54:24.291Z,3.44
2022-11-03T02:55:13.996Z,3.42
2022-11-03T02:56:03.993Z,3.41
2022-11-03T02:56:53.973Z,3.37
2022-11-03T02:57:43.956Z,3.35
2022-11-03T02:58:33.958Z,3.34
2022-11-03T02:59:23.946Z,3.34
2022-11-03T03:00:13.965Z,3.33
2022-11-03T03:01:04.013Z,3.33
2022-11-03T03:01:54.021Z,3.31
2022-11-03T03:02:43.912Z,3.31
2022-11-03T03:03:33.925Z,3.33
2022-11-03T03:04:23.915Z,3.34
2022-11-03T03:05:13.890Z,3.33
2022-11-03T03:06:03.893Z,3.35
2022-11-03T03:06:53.862Z,3.37
2022-11-03T03:07:43.867Z,3.37
2022-11-03T03:08:33.862Z,3.39
2022-11-03T03:09:23.826Z,3.35
2022-11-03T03:10:13.845Z,3.37
2022-11-03T03:11:03.831Z,3.37
2022-11-03T03:11:53.812Z,3.39
2022-11-03T03:12:43.792Z,3.41
2022-11-03T03:13:33.804Z,3.44
2022-11-03T03:14:23.783Z,3.42
2022-11-03T03:15:13.790Z,3.44
2022-11-03T03:16:03.784Z,3.45
2022-11-03T03:16:53.761Z,3.45
2022-11-03T03:17:43.735Z,3.45
2022-11-03T03:18:33.740Z,3.42
2022-11-03T03:19:23.751Z,3.45
2022-11-03T03:20:13.730Z,3.45
2022-11-03T03:21:03.708Z,3.42
2022-11-03T03:21:53.728Z,3.41
2022-11-03T03:22:43.705Z,3.39
2022-11-03T03:23:33.678Z,3.37
2022-11-03T03:24:23.683Z,3.37
2022-11-03T03:25:13.650Z,3.35
2022-11-03T03:26:03.642Z,3.35
2022-11-03T03:26:53.649Z,3.35
2022-11-03T03:27:43.903Z,3.39
2022-11-03T03:28:33.650Z,3.39
2022-11-03T03:29:23.605Z,3.39
2022-11-03T03:30:13.617Z,3.37
2022-11-03T03:31:03.589Z,3.37
2022-11-03T03:31:53.608Z,3.39
2022-11-03T03:32:43.570Z,3.37
2022-11-03T03:33:33.594Z,3.37
2022-11-03T03:34:34.579Z,3.37
2022-11-03T03:35:14.549Z,3.35
2022-11-03T03:36:03.551Z,3.31
2022-11-03T03:36:53.529Z,3.31
2022-11-03T03:37:43.508Z,3.26
2022-11-03T03:38:33.500Z,3.25
2022-11-03T03:39:23.699Z,3.22
2022-11-03T03:40:13.500Z,3.20
2022-11-03T03:41:08.061Z,3.22
2022-11-03T03:41:54.516Z,3.23
2022-11-03T03:42:43.458Z,3.23
2022-11-03T03:43:33.457Z,3.23
2022-11-03T03:44:23.456Z,3.22
2022-11-03T03:45:13.477Z,3.20
2022-11-03T03:46:03.437Z,3.20
2022-11-03T03:46:53.421Z,3.20
2022-11-03T03:47:43.408Z,3.19
2022-11-03T03:48:33.426Z,3.17
2022-11-03T03:49:23.376Z,3.16
2022-11-03T03:50:13.388Z,3.16
2022-11-03T03:51:03.616Z,3.17
2022-11-03T03:51:53.371Z,3.17
2022-11-03T03:52:43.413Z,3.20
2022-11-03T03:53:33.358Z,3.20
2022-11-03T03:54:23.338Z,3.22
2022-11-03T03:55:13.377Z,3.20
2022-11-03T03:56:03.327Z,3.23
2022-11-03T03:56:53.349Z,3.25
2022-11-03T03:57:43.287Z,3.23
2022-11-03T03:58:33.305Z,3.28
2022-11-03T03:59:23.272Z,3.28
2022-11-03T04:00:13.274Z,3.28
2022-11-03T04:01:03.304Z,3.25
2022-11-03T04:01:53.438Z,3.26
2022-11-03T04:02:43.267Z,3.25
2022-11-03T04:03:33.235Z,3.25
2022-11-03T04:04:23.219Z,3.22
2022-11-03T04:05:13.229Z,3.25
2022-11-03T04:06:03.203Z,3.25
2022-11-03T04:06:53.190Z,3.26
2022-11-03T04:07:43.960Z,3.25
2022-11-03T04:08:33.214Z,3.26
2022-11-03T04:09:23.168Z,3.26
2022-11-03T04:10:13.164Z,3.26
2022-11-03T04:11:03.152Z,3.26
2022-11-03T04:11:53.132Z,3.25
2022-11-03T04:12:43.133Z,3.25
2022-11-03T04:13:33.134Z,3.26
2022-11-03T04:14:23.167Z,3.25
2022-11-03T04:15:13.108Z,3.25
2022-11-03T04:16:03.110Z,3.30
2022-11-03T04:16:53.098Z,3.30
2022-11-03T04:17:43.095Z,3.28
2022-11-03T04:18:33.058Z,3.31
2022-11-03T04:19:23.057Z,3.30
2022-11-03T04:20:13.080Z,3.34
2022-11-03T04:21:03.052Z,3.35
2022-11-03T04:21:53.020Z,3.34
2022-11-03T04:22:43.041Z,3.33
2022-11-03T04:23:33.001Z,3.34
2022-11-03T04:24:23.017Z,3.37
2022-11-03T04:25:12.982Z,3.39
2022-11-03T04:26:02.989Z,3.39
2022-11-03T04:26:52.968Z,3.42
2022-11-03T04:27:42.964Z,3.42
2022-11-03T04:28:32.989Z,3.42
2022-11-03T04:29:22.966Z,3.44
2022-11-03T04:30:12.939Z,3.44
2022-11-03T04:31:02.934Z,3.42
2022-11-03T04:31:52.905Z,3.41
2022-11-03T04:32:42.948Z,3.41
2022-11-03T04:33:32.899Z,3.42
2022-11-03T04:34:22.888Z,3.41
2022-11-03T04:35:12.867Z,3.37
2022-11-03T04:36:02.868Z,3.35
2022-11-03T04:36:52.868Z,3.34
2022-11-03T04:37:47.323Z,3.33
2022-11-03T04:38:32.925Z,3.33
2022-11-03T04:39:22.836Z,3.30
2022-11-03T04:40:12.806Z,3.26
2022-11-03T04:41:02.807Z,3.28
2022-11-03T04:41:52.798Z,3.30
2022-11-03T04:42:42.807Z,3.30
2022-11-03T04:43:32.776Z,3.33
2022-11-03T04:44:22.805Z,3.33
2022-11-03T04:45:12.776Z,3.34
2022-11-03T04:46:02.767Z,3.34
2022-11-03T04:46:52.758Z,3.35
2022-11-03T04:47:42.738Z,3.35
2022-11-03T04:48:32.725Z,3.34
2022-11-03T04:49:22.736Z,3.34
2022-11-03T04:50:12.724Z,3.35
2022-11-03T04:51:02.716Z,3.37
2022-11-03T04:51:52.684Z,3.42
2022-11-03T04:52:42.678Z,3.42
2022-11-03T04:53:32.691Z,3.45
2022-11-03T04:54:22.691Z,3.45
2022-11-03T04:55:12.665Z,3.46
2022-11-03T04:56:07.177Z,3.49
2022-11-03T04:56:52.664Z,3.46
2022-11-03T04:57:42.643Z,3.46
2022-11-03T04:58:32.634Z,3.45
2022-11-03T04:59:22.640Z,3.44
2022-11-03T05:00:12.593Z,3.44
2022-11-03T05:01:02.642Z,3.44
2022-11-03T05:01:52.817Z,3.45
2022-11-03T05:02:42.564Z,3.45
2022-11-03T05:03:32.561Z,3.50
2022-11-03T05:04:22.580Z,3.49
2022-11-03T05:05:12.551Z,3.46
2022-11-03T05:06:02.531Z,3.49
2022-11-03T05:06:52.591Z,3.49
2022-11-03T05:07:42.510Z,3.50
2022-11-03T05:08:32.499Z,3.49
2022-11-03T05:09:22.513Z,3.50
2022-11-03T05:10:24.713Z,3.49
2022-11-03T05:11:02.482Z,3.52
2022-11-03T05:11:52.462Z,3.46
2022-11-03T05:12:42.452Z,3.44
2022-11-03T05:13:32.444Z,3.42
2022-11-03T05:14:22.443Z,3.42
2022-11-03T05:15:12.454Z,3.42
2022-11-03T05:16:02.441Z,3.42
2022-11-03T05:16:52.424Z,3.39
2022-11-03T05:17:42.400Z,3.37
2022-11-03T05:18:32.391Z,3.35
2022-11-03T05:19:22.389Z,3.35
2022-11-03T05:20:12.390Z,3.34
2022-11-03T05:21:02.380Z,3.35
2022-11-03T05:21:52.371Z,3.37
2022-11-03T05:22:42.354Z,3.37
2022-11-03T05:23:32.368Z,3.39
2022-11-03T05:24:22.322Z,3.37
2022-11-03T05:25:12.319Z,3.35
2022-11-03T05:26:02.319Z,3.33
2022-11-03T05:26:52.306Z,3.33
2022-11-03T05:27:42.309Z,3.33
2022-11-03T05:28:32.286Z,3.34
2022-11-03T05:29:22.298Z,3.34
2022-11-03T05:30:12.260Z,3.35
2022-11-03T05:31:02.271Z,3.37
2022-11-03T05:31:52.246Z,3.41
2022-11-03T05:32:42.239Z,3.42
2022-11-03T05:33:32.252Z,3.42
2022-11-03T05:34:22.253Z,3.41
2022-11-03T05:35:12.228Z,3.42
2022-11-03T05:36:02.196Z,3.42
2022-11-03T05:36:52.187Z,3.41
2022-11-03T05:37:42.197Z,3.37
2022-11-03T05:38:32.175Z,3.35
2022-11-03T05:39:22.411Z,3.33
2022-11-03T05:40:12.156Z,3.31
2022-11-03T05:41:02.154Z,3.31
2022-11-03T05:41:52.132Z,3.30
2022-11-03T05:42:42.148Z,3.28
2022-11-03T05:43:32.126Z,3.26
2022-11-03T05:44:22.112Z,3.26
2022-11-03T05:45:12.113Z,3.26
2022-11-03T05:46:02.139Z,3.30
2022-11-03T05:46:52.067Z,3.31
2022-11-03T05:47:42.085Z,3.33
2022-11-03T05:48:32.092Z,3.33
2022-11-03T05:49:22.056Z,3.33
2022-11-03T05:50:12.036Z,3.33
2022-11-03T05:51:02.046Z,3.33
2022-11-03T05:51:52.025Z,3.33
2022-11-03T05:52:42.016Z,3.30
2022-11-03T05:53:32.018Z,3.28
2022-11-03T05:54:22.048Z,3.25
2022-11-03T05:55:11.992Z,3.23
2022-11-03T05:56:01.984Z,3.22
2022-11-03T05:56:51.966Z,3.17
2022-11-03T05:57:41.954Z,3.15
2022-11-03T05:58:31.942Z,3.15
2022-11-03T05:59:21.953Z,3.13
2022-11-03T06:00:12.162Z,3.15
2022-11-03T06:01:01.914Z,3.15
2022-11-03T06:01:52.079Z,3.16
2022-11-03T06:02:42.015Z,3.17
2022-11-03T06:03:31.894Z,3.15
2022-11-03T06:04:21.884Z,3.13
2022-11-03T06:05:11.872Z,3.13
2022-11-03T06:06:02.111Z,3.13
2022-11-03T06:06:51.858Z,3.16
2022-11-03T06:07:41.834Z,3.16
2022-11-03T06:08:31.840Z,3.17
2022-11-03T06:09:21.839Z,3.19
2022-11-03T06:10:11.804Z,3.23
2022-11-03T06:11:01.801Z,3.25
2022-11-03T06:11:51.819Z,3.26
2022-11-03T06:12:41.796Z,3.26
2022-11-03T06:13:31.784Z,3.22
2022-11-03T06:14:24.330Z,3.19
2022-11-03T06:15:11.753Z,3.17
2022-11-03T06:16:01.778Z,3.16
2022-11-03T06:16:51.739Z,3.19
2022-11-03T06:17:41.938Z,3.22
2022-11-03T06:18:31.718Z,3.22
2022-11-03T06:19:21.720Z,3.22
2022-11-03T06:20:11.724Z,3.23
2022-11-03T06:21:01.710Z,3.23
2022-11-03T06:21:51.692Z,3.23
2022-11-03T06:22:41.681Z,3.23
2022-11-03T06:23:31.710Z,3.23
2022-11-03T06:24:21.659Z,3.26
2022-11-03T06:25:11.660Z,3.26
2022-11-03T06:26:01.656Z,3.28
2022-11-03T06:26:51.628Z,3.26
2022-11-03T06:27:41.623Z,3.26
2022-11-03T06:28:31.628Z,3.26
2022-11-03T06:29:21.647Z,3.26
2022-11-03T06:30:11.591Z,3.30
2022-11-03T06:31:01.579Z,3.34
2022-11-03T06:31:51.580Z,3.35
2022-11-03T06:32:41.586Z,3.34
2022-11-03T06:33:31.558Z,3.33
2022-11-03T06:34:21.547Z,3.34
2022-11-03T06:35:11.608Z,3.31
2022-11-03T06:36:01.547Z,3.31
2022-11-03T06:36:51.539Z,3.34
2022-11-03T06:37:41.546Z,3.35
2022-11-03T06:38:31.505Z,3.35
2022-11-03T06:39:21.504Z,3.35
2022-11-03T06:40:11.497Z,3.39
2022-11-03T06:41:01.515Z,3.42
2022-11-03T06:41:51.456Z,3.42
2022-11-03T06:42:41.470Z,3.46
2022-11-03T06:43:31.437Z,3.49
2022-11-03T06:44:21.437Z,3.52
2022-11-03T06:45:11.444Z,3.53
2022-11-03T06:46:01.422Z,3.54
2022-11-03T06:46:51.446Z,3.57
2022-11-03T06:47:41.413Z,3.60
2022-11-03T06:48:31.384Z,3.64
2022-11-03T06:49:21.382Z,3.67
2022-11-03T06:50:11.367Z,3.68
2022-11-03T06:51:01.370Z,3.68
2022-11-03T06:51:51.356Z,3.71
2022-11-03T06:52:41.475Z,3.74
2022-11-03T06:53:31.331Z,3.72
2022-11-03T06:54:21.331Z,3.72
2022-11-03T06:55:13.922Z,3.77
2022-11-03T06:56:02.317Z,3.77
2022-11-03T06:56:51.304Z,3.80
2022-11-03T06:57:41.320Z,3.78
2022-11-03T06:58:31.305Z,3.81
2022-11-03T06:59:21.273Z,3.82
2022-11-03T07:00:32.904Z,3.84
2022-11-03T07:01:03.498Z,3.84
2022-11-03T07:01:51.417Z,3.86
2022-11-03T07:02:41.316Z,3.88
2022-11-03T07:03:31.225Z,3.88
2022-11-03T07:04:21.212Z,3.88
2022-11-03T07:05:11.228Z,3.88
2022-11-03T07:06:01.215Z,3.84
2022-11-03T07:06:53.577Z,3.81
2022-11-03T07:07:41.221Z,3.80
2022-11-03T07:08:31.168Z,3.81
2022-11-03T07:09:21.161Z,3.81
2022-11-03T07:10:11.160Z,3.81
2022-11-03T07:11:01.143Z,3.80
2022-11-03T07:11:51.152Z,3.82
2022-11-03T07:12:41.131Z,3.82
2022-11-03T07:13:31.340Z,3.86
2022-11-03T07:14:21.117Z,3.88
2022-11-03T07:15:11.107Z,3.90
2022-11-03T07:16:01.107Z,3.93
2022-11-03T07:16:51.073Z,3.96
2022-11-03T07:17:41.073Z,3.96
2022-11-03T07:18:31.070Z,4.00
2022-11-03T07:19:21.202Z,4.07
2022-11-03T07:20:11.047Z,4.08
2022-11-03T07:21:01.049Z,4.13
2022-11-03T07:21:51.020Z,4.14
2022-11-03T07:22:41.015Z,4.17
2022-11-03T07:23:31.008Z,4.18
2022-11-03T07:24:21.011Z,4.18
2022-11-03T07:25:11.025Z,4.20
2022-11-03T07:26:00.977Z,4.21
2022-11-03T07:26:50.983Z,4.21
2022-11-03T07:27:40.977Z,4.26
2022-11-03T07:28:30.939Z,4.28
2022-11-03T07:29:20.932Z,4.31
2022-11-03T07:30:10.935Z,4.35
2022-11-03T07:31:00.944Z,4.38
2022-11-03T07:31:50.925Z,4.38
2022-11-03T07:32:40.916Z,4.39
2022-11-03T07:33:30.897Z,4.46
2022-11-03T07:34:20.889Z,4.50
2022-11-03T07:35:10.918Z,4.50
2022-11-03T07:36:14.933Z,4.53
2022-11-03T07:36:55.647Z,4.54
2022-11-03T07:37:40.897Z,4.59
2022-11-03T07:38:30.831Z,4.59
2022-11-03T07:39:20.830Z,4.61
2022-11-03T07:40:10.819Z,4.62
2022-11-03T07:41:00.831Z,4.64
2022-11-03T07:41:50.804Z,4.68
2022-11-03T07:42:40.787Z,4.68
2022-11-03T07:43:30.766Z,4.71
2022-11-03T07:44:20.786Z,4.72
2022-11-03T07:45:10.765Z,4.74
2022-11-03T07:46:00.746Z,4.77
2022-11-03T07:46:50.784Z,4.80
2022-11-03T07:47:40.757Z,4.84
2022-11-03T07:48:30.715Z,4.83
2022-11-03T07:49:20.724Z,4.86
2022-11-03T07:50:10.709Z,4.87
2022-11-03T07:51:00.696Z,4.90
2022-11-03T07:51:50.677Z,4.90
2022-11-03T07:52:40.777Z,4.91
2022-11-03T07:53:30.668Z,4.94
2022-11-03T07:54:20.645Z,4.96
2022-11-03T07:55:10.665Z,4.96
2022-11-03T07:56:00.683Z,4.99
2022-11-03T07:56:50.623Z,4.97
2022-11-03T07:57:40.607Z,4.96
2022-11-03T07:58:30.855Z,4.96
2022-11-03T07:59:20.651Z,4.96
2022-11-03T08:00:10.689Z,4.99
2022-11-03T08:01:00.597Z,5.01
2022-11-03T08:01:50.649Z,5.02
2022-11-03T08:02:40.597Z,5.04
2022-11-03T08:03:30.564Z,5.05
2022-11-03T08:04:20.583Z,5.08
2022-11-03T08:05:10.574Z,5.11
2022-11-03T08:06:02.704Z,5.14
2022-11-03T08:06:50.531Z,5.19
2022-11-03T08:07:40.521Z,5.20
2022-11-03T08:08:30.503Z,5.24
2022-11-03T08:09:20.501Z,5.27
2022-11-03T08:10:10.991Z,5.32
2022-11-03T08:11:00.553Z,5.33
2022-11-03T08:11:50.483Z,5.38
2022-11-03T08:12:40.448Z,5.41
2022-11-03T08:13:30.448Z,5.44
2022-11-03T08:14:20.439Z,5.48
2022-11-03T08:15:10.430Z,5.49
2022-11-03T08:16:00.458Z,5.52
2022-11-03T08:16:50.410Z,5.55
2022-11-03T08:17:40.400Z,5.56
2022-11-03T08:18:30.391Z,5.58
2022-11-03T08:19:20.382Z,5.60
2022-11-03T08:20:10.371Z,5.62
2022-11-03T08:21:00.395Z,5.62
2022-11-03T08:21:50.668Z,5.66
2022-11-03T08:22:41.643Z,5.66
2022-11-03T08:23:31.799Z,5.69
2022-11-03T08:24:20.319Z,5.73
2022-11-03T08:25:10.319Z,5.74
2022-11-03T08:26:00.323Z,5.78
2022-11-03T08:26:50.290Z,5.83
2022-11-03T08:27:40.523Z,5.85
2022-11-03T08:28:30.278Z,5.90
2022-11-03T08:29:20.277Z,5.95
2022-11-03T08:30:10.257Z,5.95
2022-11-03T08:31:02.091Z,5.96
2022-11-03T08:31:50.237Z,5.96
2022-11-03T08:32:40.257Z,5.99
2022-11-03T08:33:30.304Z,6.02
2022-11-03T08:34:20.220Z,6.03
2022-11-03T08:35:10.197Z,6.06
2022-11-03T08:36:00.189Z,6.10
2022-11-03T08:36:50.173Z,6.13
2022-11-03T08:37:40.186Z,6.16
2022-11-03T08:38:30.207Z,6.20
2022-11-03T08:39:20.157Z,6.21
2022-11-03T08:40:10.134Z,6.27
2022-11-03T08:41:00.170Z,6.28
2022-11-03T08:41:50.135Z,6.32
2022-11-03T08:42:40.105Z,6.35
2022-11-03T08:43:30.155Z,6.36
2022-11-03T08:44:20.117Z,6.40
2022-11-03T08:45:10.082Z,6.43
2022-11-03T08:46:08.218Z,6.45
2022-11-03T08:46:51.075Z,6.50
2022-11-03T08:47:40.070Z,6.51
2022-11-03T08:48:30.045Z,6.55
2022-11-03T08:49:20.031Z,6.58
2022-11-03T08:50:10.961Z,6.61
2022-11-03T08:51:00.024Z,6.64
2022-11-03T08:51:50.013Z,6.65
2022-11-03T08:52:40.042Z,6.71
2022-11-03T08:53:30.002Z,6.73
2022-11-03T08:54:19.973Z,6.76
2022-11-03T08:55:09.994Z,6.79
2022-11-03T08:56:00.227Z,6.81
2022-11-03T08:56:49.970Z,6.86
2022-11-03T08:57:39.943Z,6.87
2022-11-03T08:58:29.938Z,6.91
2022-11-03T08:59:19.939Z,6.94
2022-11-03T09:00:09.939Z,6.97
2022-11-03T09:00:59.913Z,7.01
2022-11-03T09:01:49.978Z,7.07
2022-11-03T09:02:39.968Z,7.09
2022-11-03T09:03:29.992Z,7.12
2022-11-03T09:04:19.856Z,7.16
2022-11-03T09:05:09.887Z,7.21
2022-11-03T09:05:59.853Z,7.24
2022-11-03T09:06:49.846Z,7.29
2022-11-03T09:11:00.803Z,7.51
2022-11-03T09:11:49.792Z,7.54
2022-11-03T09:12:39.794Z,7.58
2022-11-03T09:13:29.829Z,7.60
2022-11-03T09:14:19.771Z,7.62
2022-11-03T09:15:09.754Z,7.67
2022-11-03T09:15:59.752Z,7.69
2022-11-03T09:16:49.791Z,7.71
2022-11-03T09:17:41.959Z,7.73
2022-11-03T09:18:30.735Z,7.73
2022-11-03T09:19:19.698Z,7.74
2022-11-03T09:20:09.748Z,7.76
2022-11-03T09:20:59.690Z,7.81
2022-11-03T09:21:49.695Z,7.84
2022-11-03T09:22:39.654Z,7.85
2022-11-03T09:23:29.686Z,7.88
2022-11-03T09:24:19.661Z,7.92
2022-11-03T09:25:09.641Z,7.95
2022-11-03T09:25:59.652Z,7.99
2022-11-03T09:26:49.631Z,8.04
2022-11-03T09:27:39.601Z,8.12
2022-11-03T09:28:29.636Z,8.13
2022-11-03T09:29:19.588Z,8.18
2022-11-03T09:30:13.862Z,8.21
2022-11-03T09:30:59.570Z,8.22
2022-11-03T09:31:49.809Z,8.27
2022-11-03T09:32:39.550Z,8.27
2022-11-03T09:33:29.541Z,8.29
2022-11-03T09:34:19.541Z,8.34
2022-11-03T09:35:09.527Z,8.40
2022-11-03T09:35:59.516Z,8.43
2022-11-03T09:36:53.208Z,8.47
2022-11-03T09:37:39.720Z,8.49
2022-11-03T09:38:29.500Z,8.55
2022-11-03T09:39:19.519Z,8.58
2022-11-03T09:40:09.480Z,8.64
2022-11-03T09:40:59.475Z,8.68
2022-11-03T09:41:58.599Z,8.71
2022-11-03T09:42:40.469Z,8.73
2022-11-03T09:43:29.556Z,8.79
2022-11-03T09:44:19.429Z,8.82
2022-11-03T09:45:09.407Z,8.82
2022-11-03T09:45:59.397Z,8.85
2022-11-03T09:46:52.650Z,8.89
2022-11-03T09:47:40.389Z,8.93
2022-11-03T09:48:29.455Z,8.98
2022-11-03T09:49:19.358Z,9.03
2022-11-03T09:50:09.374Z,9.08
2022-11-03T09:50:59.358Z,9.12
2022-11-03T09:51:49.338Z,9.15
2022-11-03T09:52:39.574Z,9.19
2022-11-03T09:53:29.634Z,9.24
2022-11-03T09:54:19.545Z,9.27
2022-11-03T09:55:09.297Z,9.32
2022-11-03T09:55:59.298Z,9.40
2022-11-03T09:56:49.317Z,9.44
2022-11-03T09:57:39.268Z,9.49
2022-11-03T09:58:29.295Z,9.53
2022-11-03T09:59:19.285Z,9.56
2022-11-03T10:00:09.246Z,9.62
2022-11-03T10:00:59.274Z,9.67
2022-11-03T10:01:49.367Z,9.71
2022-11-03T10:02:39.216Z,9.75
2022-11-03T10:03:29.205Z,9.80
2022-11-03T10:04:19.204Z,9.81
2022-11-03T10:05:11.156Z,9.86
2022-11-03T10:05:59.196Z,9.86
2022-11-03T10:06:49.169Z,9.89
2022-11-03T10:07:39.153Z,9.93
2022-11-03T10:08:29.186Z,9.99
2022-11-03T10:09:19.134Z,10.01
2022-11-03T10:10:09.144Z,10.04
2022-11-03T10:10:59.156Z,10.06
2022-11-03T10:11:49.123Z,10.10
2022-11-03T10:12:39.093Z,10.13
2022-11-03T10:13:29.127Z,10.17
2022-11-03T10:14:19.087Z,10.20
2022-11-03T10:15:09.082Z,10.20
2022-11-03T10:15:59.072Z,10.25
2022-11-03T10:16:53.326Z,10.28
2022-11-03T10:17:39.050Z,10.32
2022-11-03T10:18:29.034Z,10.32
2022-11-03T10:19:19.024Z,10.34
2022-11-03T10:20:09.032Z,10.39
2022-11-03T10:20:59.013Z,10.38
2022-11-03T10:21:49.000Z,10.42
2022-11-03T10:22:41.182Z,10.46
2022-11-03T10:23:29.003Z,10.49
2022-11-03T10:24:18.962Z,10.51
2022-11-03T10:25:08.971Z,10.52
2022-11-03T10:25:58.963Z,10.55
2022-11-03T10:26:48.943Z,10.57
2022-11-03T10:27:38.932Z,10.62
2022-11-03T10:28:29.161Z,10.63
2022-11-03T10:30:08.915Z,10.70
2022-11-03T10:31:14.321Z,10.73
2022-11-03T10:31:49.903Z,10.76
2022-11-03T10:32:38.873Z,10.78
2022-11-03T10:33:28.876Z,10.81
2022-11-03T10:34:18.924Z,10.83
2022-11-03T10:35:08.858Z,10.87
2022-11-03T10:35:58.836Z,10.88
2022-11-03T10:36:50.723Z,10.93
2022-11-03T10:37:38.811Z,10.95
2022-11-03T10:38:28.820Z,10.99
2022-11-03T10:39:18.798Z,11.02
2022-11-03T10:40:13.246Z,11.03
2022-11-03T10:40:59.791Z,11.05
2022-11-03T10:41:48.770Z,11.08
2022-11-03T10:42:38.751Z,11.11
2022-11-03T10:43:28.751Z,11.12
2022-11-03T10:44:18.737Z,11.13
2022-11-03T10:45:08.767Z,11.19
2022-11-03T10:45:58.922Z,11.20
2022-11-03T10:46:51.242Z,11.21
2022-11-03T10:47:38.699Z,11.23
2022-11-03T10:48:28.711Z,11.26
2022-11-03T10:49:18.686Z,11.28
2022-11-03T10:50:08.705Z,11.31
2022-11-03T10:50:58.676Z,11.33
2022-11-03T10:51:48.681Z,11.36
2022-11-03T10:52:38.645Z,11.39
2022-11-03T10:53:28.661Z,11.41
2022-11-03T10:54:18.636Z,11.42
2022-11-03T10:55:08.619Z,11.44
2022-11-03T10:55:58.599Z,11.45
2022-11-03T10:56:48.613Z,11.46
2022-11-03T10:57:38.639Z,11.51
2022-11-03T10:58:28.579Z,11.53
2022-11-03T10:59:18.578Z,11.56
2022-11-03T11:00:08.579Z,11.57
2022-11-03T11:00:58.618Z,11.59
2022-11-03T11:01:48.697Z,11.59
2022-11-03T11:02:38.570Z,11.63
2022-11-03T11:03:28.748Z,11.64
2022-11-03T11:04:18.627Z,11.66
2022-11-03T11:05:08.550Z,11.66
2022-11-03T11:05:58.607Z,11.69
2022-11-03T11:06:48.489Z,11.72
2022-11-03T11:07:38.536Z,11.75